createdAt,value
2019-04-14T04:00:03.210Z,7.68
2019-04-14T04:02:35.968Z,7.74
2019-04-14T04:05:08.587Z,7.77
2019-04-14T04:07:41.009Z,7.87
2019-04-14T04:10:14.213Z,7.87
2019-04-14T04:12:46.493Z,7.97
2019-04-14T04:15:19.181Z,7.99
2019-04-14T04:17:52.365Z,8.01
2019-04-14T04:20:26.383Z,8.01
2019-04-14T04:22:59.391Z,7.96
2019-04-14T04:25:33.280Z,7.87
2019-04-14T04:28:25.642Z,7.81
2019-04-14T04:31:05.373Z,7.78
2019-04-14T04:33:55.175Z,7.74
2019-04-14T04:36:44.675Z,7.84
2019-04-14T04:39:21.428Z,7.83
2019-04-14T12:23:41.116Z,10.27
2019-04-14T12:26:13.840Z,10.25
2019-04-14T12:28:45.441Z,10.28
2019-04-14T12:31:17.430Z,10.39
2019-04-14T12:33:49.221Z,10.44
2019-04-14T12:36:20.976Z,10.42
2019-04-14T12:38:53.142Z,10.48
2019-04-14T12:41:33.224Z,10.66
2019-04-14T12:44:18.671Z,10.65
2019-04-14T12:46:52.105Z,10.60
2019-04-14T12:49:25.572Z,10.69
2019-04-14T12:52:01.736Z,10.68
2019-04-14T12:54:33.592Z,10.74
2019-04-14T12:57:05.153Z,10.82
2019-04-14T12:59:37.130Z,10.85
2019-04-14T13:02:11.312Z,10.89
2019-04-14T13:04:43.384Z,10.73
2019-04-14T13:07:15.860Z,10.63
2019-04-14T13:09:47.833Z,10.67
2019-04-14T13:12:19.888Z,10.71
2019-04-14T13:14:51.797Z,10.60
2019-04-14T13:17:23.899Z,10.51
2019-04-14T13:19:55.514Z,10.54
2019-04-14T13:22:33.910Z,10.54
2019-04-14T13:25:02.670Z,10.53
2019-04-14T13:27:35.423Z,10.52
2019-04-14T13:30:10.046Z,10.47
2019-04-14T13:32:41.513Z,10.46
2019-04-14T13:35:13.633Z,10.43
2019-04-14T16:39:34.259Z,9.43
2019-04-14T16:42:06.086Z,9.42
2019-04-14T16:44:37.777Z,9.42
2019-04-14T16:47:09.628Z,9.53
2019-04-14T16:49:41.489Z,9.58
2019-04-14T16:52:14.664Z,9.68
2019-04-14T16:54:57.282Z,9.71
2019-04-14T16:57:48.015Z,9.70
2019-04-14T17:00:30.253Z,9.68
2019-04-14T17:03:02.176Z,9.71
2019-04-14T17:05:34.952Z,9.66
2019-04-14T17:08:06.595Z,9.72
2019-04-14T17:10:38.478Z,9.69
2019-04-14T17:13:11.712Z,9.67
2019-04-14T17:15:45.258Z,9.63
2019-04-14T17:18:20.295Z,9.65
2019-04-14T17:21:10.369Z,9.60
2019-04-14T17:23:46.730Z,9.64
2019-04-14T17:26:20.136Z,9.64
2019-04-14T17:29:09.681Z,9.65
2019-04-14T17:31:58.582Z,9.67
2019-04-14T17:34:34.788Z,9.60
2019-04-14T17:37:17.145Z,9.70
2019-04-14T17:39:59.595Z,9.64
2019-04-14T17:42:33.235Z,9.61
2019-04-14T17:45:08.850Z,9.50
2019-04-14T17:47:45.583Z,9.52
2019-04-14T17:50:21.062Z,9.48
2019-04-14T17:52:54.585Z,9.44
2019-04-14T17:55:34.327Z,9.42
2019-04-14T17:58:10.846Z,9.36
2019-04-14T18:00:56.018Z,9.30
2019-04-14T18:03:38.830Z,9.32
2019-04-14T18:06:12.224Z,9.29
2019-04-14T18:08:45.486Z,9.23
2019-04-14T18:11:24.963Z,9.14
2019-04-14T18:14:01.462Z,9.13
2019-04-14T18:16:37.998Z,8.98
2019-04-14T18:19:19.859Z,8.97
2019-04-14T18:21:51.756Z,9.02
2019-04-14T18:24:23.717Z,8.98
2019-04-14T18:26:55.470Z,8.99
2019-04-14T18:29:37.525Z,9.01
2019-04-14T18:32:16.813Z,8.99
2019-04-14T18:35:05.480Z,8.97
2019-04-14T18:37:55.520Z,8.93
2019-04-14T18:40:45.155Z,8.89
2019-04-14T18:43:24.402Z,8.80
2019-04-14T18:45:57.964Z,8.71
2019-04-14T18:48:40.481Z,8.65
2019-04-14T18:51:20.254Z,8.66
2019-04-14T18:53:56.594Z,8.63
2019-04-14T18:56:32.548Z,8.66
2019-04-14T18:59:20.989Z,8.56
2019-04-14T19:01:54.383Z,8.57
2019-04-14T19:04:26.143Z,8.50
2019-04-14T19:06:57.902Z,8.48
2019-04-14T19:09:29.636Z,8.39
2019-04-14T19:12:06.048Z,8.35
2019-04-14T19:14:39.428Z,8.30
2019-04-14T19:17:28.188Z,8.26
2019-04-14T19:20:02.310Z,8.27
2019-04-14T19:22:34.160Z,8.21
2019-04-14T19:25:08.389Z,8.11
2019-04-14T19:27:40.164Z,8.14
2019-04-14T19:30:12.100Z,8.12
2019-04-14T19:32:43.678Z,8.06
2019-04-14T19:35:15.524Z,7.97
2019-04-14T19:37:47.164Z,7.92
2019-04-14T19:40:18.621Z,7.84
2019-04-14T19:42:50.275Z,7.78
2019-04-14T19:45:21.822Z,7.70
2019-04-14T19:47:53.748Z,7.66
2019-04-14T19:50:25.551Z,7.62
2019-04-14T19:52:57.403Z,7.54
2019-04-14T19:55:29.039Z,7.46
2019-04-14T19:58:00.832Z,7.39
2019-04-14T20:00:32.475Z,7.32
2019-04-14T20:03:03.921Z,7.22
2019-04-14T20:05:35.680Z,7.17
2019-04-14T20:08:07.553Z,7.13
2019-04-14T20:10:38.921Z,7.07
2019-04-14T20:13:10.862Z,7.04
2019-04-14T20:15:43.965Z,6.98
2019-04-14T20:18:23.230Z,6.98
2019-04-14T20:20:59.558Z,6.92
2019-04-14T20:23:52.040Z,6.85
